createdAt,value
2022-11-01T00:02:18.100Z,27.07
2022-11-01T00:04:46.533Z,28.53
2022-11-01T00:07:14.927Z,27.07
2022-11-01T00:09:43.374Z,27.33
2022-11-01T00:12:11.737Z,26.30
2022-11-01T00:14:40.500Z,25.70
2022-11-01T00:17:09.460Z,26.77
2022-11-01T00:19:39.263Z,29.03
2022-11-01T00:22:07.674Z,28.40
2022-11-01T00:24:36.174Z,25.73
2022-11-01T00:27:05.253Z,19.47
2022-11-01T00:29:33.667Z,22.67
2022-11-01T00:32:02.509Z,19.57
2022-11-01T00:34:30.917Z,24.23
2022-11-01T00:37:00.919Z,24.40
2022-11-01T00:39:31.460Z,19.00
2022-11-01T00:41:59.993Z,21.80
2022-11-01T00:44:28.984Z,20.13
2022-11-01T00:46:57.457Z,20.27
2022-11-01T00:49:27.121Z,21.47
2022-11-01T00:51:55.574Z,16.63
2022-11-01T00:54:25.679Z,17.00
2022-11-01T00:56:54.078Z,17.43
2022-11-01T00:59:23.394Z,17.20
2022-11-01T01:01:51.831Z,17.07
2022-11-01T01:04:21.005Z,18.03
2022-11-01T01:06:49.684Z,17.67
2022-11-01T01:09:18.225Z,15.27
2022-11-01T01:11:47.962Z,14.40
2022-11-01T01:14:16.498Z,15.13
2022-11-01T01:16:44.878Z,16.93
2022-11-01T01:19:13.662Z,15.67
2022-11-01T01:21:42.049Z,19.50
2022-11-01T01:24:10.711Z,18.80
2022-11-01T01:26:39.649Z,21.57
2022-11-01T01:29:09.536Z,15.10
2022-11-01T01:31:37.911Z,20.60
2022-11-01T01:34:06.772Z,21.93
2022-11-01T01:36:35.223Z,22.07
2022-11-01T01:39:03.874Z,22.40
2022-11-01T01:41:50.308Z,21.87
2022-11-01T01:45:22.532Z,26.67
2022-11-01T01:47:55.127Z,20.70
2022-11-01T01:50:32.836Z,18.63
2022-11-01T01:53:07.559Z,19.20
2022-11-01T01:55:42.864Z,19.03
2022-11-01T01:58:15.997Z,19.73
2022-11-01T02:00:45.939Z,21.30
2022-11-01T02:03:16.637Z,19.00
2022-11-01T02:05:51.916Z,21.13
2022-11-01T02:08:27.928Z,19.63
2022-11-01T02:11:03.623Z,21.97
2022-11-01T02:13:33.003Z,24.60
2022-11-01T02:16:40.470Z,23.50
2022-11-01T02:19:48.869Z,22.57
2022-11-01T02:22:30.785Z,22.00
2022-11-01T02:25:31.577Z,20.07
2022-11-01T02:28:37.702Z,23.33
2022-11-01T02:31:36.238Z,24.07
2022-11-01T02:34:15.863Z,23.20
2022-11-01T02:36:52.711Z,21.33
2022-11-01T02:39:27.711Z,18.60
2022-11-01T02:42:04.997Z,22.47
2022-11-01T02:44:39.822Z,23.10
2022-11-01T02:47:12.075Z,21.27
2022-11-01T02:49:45.107Z,25.17
2022-11-01T02:52:19.253Z,24.13
2022-11-01T02:54:54.275Z,24.40
2022-11-01T02:57:37.429Z,27.53
2022-11-01T03:00:23.526Z,25.17
2022-11-01T03:02:58.838Z,24.23
2022-11-01T03:05:41.426Z,23.57
2022-11-01T03:08:16.302Z,26.90
2022-11-01T03:10:54.136Z,23.20
2022-11-01T03:13:35.959Z,24.23
2022-11-01T03:16:18.102Z,25.97
2022-11-01T03:19:04.851Z,30.57
2022-11-01T03:21:42.716Z,20.80
2022-11-01T03:24:23.537Z,25.80
2022-11-01T03:27:01.811Z,23.73
2022-11-01T03:29:34.440Z,23.77
2022-11-01T03:32:05.227Z,19.20
2022-11-01T03:34:36.409Z,15.90
2022-11-01T03:37:12.426Z,16.30
2022-11-01T03:39:46.482Z,15.03
2022-11-01T03:42:20.830Z,16.33
2022-11-01T03:44:55.265Z,15.67
2022-11-01T03:47:23.989Z,13.20
2022-11-01T03:50:19.137Z,11.50
2022-11-01T03:52:49.476Z,16.47
2022-11-01T03:55:20.447Z,14.90
2022-11-01T03:57:51.157Z,12.50
2022-11-01T04:00:22.778Z,12.83
2022-11-01T04:02:52.698Z,12.70
2022-11-01T04:05:25.140Z,10.70
2022-11-01T04:07:55.170Z,13.03
2022-11-01T04:10:26.939Z,14.47
2022-11-01T04:12:56.278Z,12.30
2022-11-01T04:15:44.882Z,14.63
2022-11-01T04:18:34.557Z,12.43
2022-11-01T04:21:06.804Z,13.43
2022-11-01T04:23:37.541Z,10.73
2022-11-01T04:26:07.371Z,10.10
2022-11-01T04:28:35.852Z,11.17
2022-11-01T04:31:06.049Z,12.73
2022-11-01T04:33:34.538Z,10.60
2022-11-01T04:36:07.454Z,10.03
2022-11-01T04:38:37.184Z,10.80
2022-11-01T04:41:05.836Z,11.87
2022-11-01T04:43:34.440Z,11.33
2022-11-01T04:46:02.827Z,11.50
2022-11-01T04:48:32.290Z,11.40
2022-11-01T04:51:02.911Z,7.03
2022-11-01T04:53:31.387Z,7.93
2022-11-01T04:56:03.362Z,11.43
2022-11-01T04:58:31.987Z,10.53
2022-11-01T05:01:04.335Z,8.80
2022-11-01T05:03:32.970Z,10.80
2022-11-01T05:06:02.495Z,8.07
2022-11-01T05:08:31.424Z,9.73
2022-11-01T05:11:01.734Z,11.77
2022-11-01T05:13:30.976Z,13.53
2022-11-01T05:16:18.389Z,11.33
2022-11-01T05:18:47.590Z,12.10
2022-11-01T05:21:16.035Z,10.70
2022-11-01T05:23:44.487Z,11.03
2022-11-01T05:26:14.215Z,10.30
2022-11-01T05:28:42.610Z,9.57
2022-11-01T05:31:11.034Z,10.63
2022-11-01T05:33:39.652Z,9.40
2022-11-01T05:36:09.251Z,10.10
2022-11-01T05:38:37.616Z,8.30
2022-11-01T05:41:06.245Z,10.33
2022-11-01T05:43:37.097Z,8.57
2022-11-01T05:46:06.553Z,10.00
2022-11-01T05:48:36.035Z,10.37
2022-11-01T05:51:05.317Z,8.80
2022-11-01T05:53:33.706Z,12.23
2022-11-01T05:56:02.169Z,10.00
2022-11-01T05:58:31.357Z,10.37
2022-11-01T06:01:03.537Z,10.03
2022-11-01T06:03:32.225Z,11.17
2022-11-01T06:06:02.082Z,8.60
2022-11-01T06:08:32.082Z,10.43
2022-11-01T06:11:04.203Z,9.60
2022-11-01T06:13:34.463Z,9.17
2022-11-01T06:16:06.956Z,11.40
2022-11-01T06:18:35.379Z,10.07
2022-11-01T06:21:03.908Z,11.80
2022-11-01T06:23:32.282Z,11.90
2022-11-01T06:26:02.732Z,10.67
2022-11-01T06:28:31.702Z,10.73
2022-11-01T06:31:02.733Z,8.37
2022-11-01T06:33:33.211Z,12.63
2022-11-01T06:36:02.602Z,11.97
2022-11-01T06:38:31.693Z,8.60
2022-11-01T06:41:00.130Z,10.77
2022-11-01T06:43:29.064Z,9.30
2022-11-01T06:46:01.667Z,11.40
2022-11-01T06:48:31.708Z,10.50
2022-11-01T06:51:03.225Z,13.07
2022-11-01T06:53:33.338Z,14.00
2022-11-01T06:56:03.336Z,9.63
2022-11-01T06:58:31.799Z,9.37
2022-11-01T07:01:02.944Z,12.73
2022-11-01T07:03:33.548Z,11.67
2022-11-01T07:06:02.307Z,10.17
2022-11-01T07:08:30.762Z,9.50
2022-11-01T07:10:59.189Z,11.00
2022-11-01T07:13:31.000Z,9.23
2022-11-01T07:15:59.479Z,9.73
2022-11-01T07:18:29.819Z,10.33
2022-11-01T07:21:03.349Z,7.73
2022-11-01T07:23:32.102Z,11.13
2022-11-01T07:26:00.505Z,6.10
2022-11-01T07:28:31.068Z,9.20
2022-11-01T07:30:59.725Z,10.73
2022-11-01T07:33:28.866Z,11.93
2022-11-01T07:35:58.608Z,11.07
2022-11-01T07:38:27.129Z,9.27
2022-11-01T07:40:55.546Z,10.27
2022-11-01T07:43:24.698Z,14.43
2022-11-01T07:45:53.574Z,10.00
2022-11-01T07:48:22.134Z,7.73
2022-11-01T07:50:50.550Z,11.53
2022-11-01T07:53:20.876Z,10.73
2022-11-01T07:55:50.007Z,10.20
2022-11-01T07:58:19.211Z,11.03
2022-11-01T08:00:48.043Z,10.20
2022-11-01T08:03:19.187Z,10.83
2022-11-01T08:05:49.029Z,9.43
2022-11-01T08:08:17.711Z,9.13
2022-11-01T08:10:47.885Z,11.13
2022-11-01T08:13:19.445Z,10.37
2022-11-01T08:15:49.203Z,11.00
2022-11-01T08:18:19.167Z,10.73
2022-11-01T08:20:47.633Z,8.17
2022-11-01T08:23:16.130Z,8.73
2022-11-01T08:25:44.732Z,7.70
2022-11-01T08:28:18.057Z,6.93
2022-11-01T08:30:49.049Z,7.73
2022-11-01T08:33:17.531Z,8.27
2022-11-01T08:35:50.484Z,6.80
2022-11-01T08:38:20.219Z,8.07
2022-11-01T08:40:49.236Z,9.83
2022-11-01T08:43:19.158Z,10.40
2022-11-01T08:45:47.854Z,11.40
2022-11-01T08:48:16.812Z,7.37
2022-11-01T08:50:45.220Z,8.03
2022-11-01T08:53:15.384Z,9.07
2022-11-01T08:55:44.048Z,12.07
2022-11-01T08:58:13.319Z,8.23
2022-11-01T09:00:44.951Z,7.47
2022-11-01T09:03:14.212Z,10.37
2022-11-01T09:05:42.795Z,8.10
2022-11-01T09:08:11.316Z,9.83
2022-11-01T09:10:40.987Z,8.40
2022-11-01T09:13:09.832Z,8.67
2022-11-01T09:15:38.969Z,7.53
2022-11-01T09:18:09.301Z,7.73
2022-11-01T09:20:38.782Z,9.63
2022-11-01T09:23:07.260Z,6.67
2022-11-01T09:25:35.727Z,6.53
2022-11-01T09:28:04.340Z,10.07
2022-11-01T09:30:32.749Z,9.33
2022-11-01T09:33:05.695Z,9.20
2022-11-01T09:35:36.652Z,8.47
2022-11-01T09:38:05.754Z,8.00
2022-11-01T09:40:45.231Z,8.20
2022-11-01T09:43:21.542Z,6.07
2022-11-01T09:45:54.686Z,6.40
2022-11-01T09:48:25.522Z,6.60
2022-11-01T09:50:55.714Z,8.13
2022-11-01T09:53:28.315Z,6.00
2022-11-01T09:56:10.041Z,4.70
2022-11-01T09:58:56.338Z,4.87
2022-11-01T10:01:51.302Z,6.33
2022-11-01T10:04:49.793Z,10.00
2022-11-01T10:07:33.112Z,6.67
2022-11-01T10:10:17.344Z,4.97
2022-11-01T10:13:02.165Z,6.07
2022-11-01T10:15:48.188Z,6.33
2022-11-01T10:18:30.916Z,5.53
2022-11-01T10:21:02.894Z,6.20
2022-11-01T10:23:46.639Z,5.97
2022-11-01T10:26:20.554Z,5.93
2022-11-01T10:29:00.616Z,6.97
2022-11-01T10:31:33.007Z,7.03
2022-11-01T10:34:14.539Z,4.63
2022-11-01T10:36:46.849Z,6.97
2022-11-01T10:42:21.627Z,11.57
2022-11-01T10:44:55.711Z,4.03
2022-11-01T10:47:27.970Z,6.57
2022-11-01T10:50:06.847Z,7.67
2022-11-01T10:52:49.033Z,9.20
2022-11-01T10:55:25.236Z,3.80
2022-11-01T10:58:00.847Z,9.13
2022-11-01T11:00:35.838Z,5.50
2022-11-01T11:03:17.984Z,4.93
2022-11-01T11:05:49.148Z,3.90
2022-11-01T11:08:22.420Z,6.80
2022-11-01T11:10:53.085Z,3.53
2022-11-01T11:13:26.260Z,5.27
2022-11-01T11:16:00.475Z,3.73
2022-11-01T11:18:33.601Z,5.07
2022-11-01T11:21:08.722Z,7.23
2022-11-01T11:23:45.824Z,7.00
2022-11-01T11:26:20.521Z,4.87
2022-11-01T11:28:54.488Z,6.27
2022-11-01T11:31:28.314Z,5.00
2022-11-01T11:34:01.319Z,4.23
2022-11-01T11:36:35.048Z,5.07
2022-11-01T11:39:04.459Z,4.90
2022-11-01T11:41:39.042Z,6.90
2022-11-01T11:44:42.862Z,5.97
2022-11-01T11:47:24.435Z,4.47
2022-11-01T11:49:54.217Z,5.40
2022-11-01T11:52:28.759Z,7.57
2022-11-01T11:54:57.961Z,3.80
2022-11-01T11:57:30.021Z,5.00
2022-11-01T12:00:05.122Z,4.43
2022-11-01T12:02:42.909Z,4.83
2022-11-01T12:05:20.386Z,4.83
2022-11-01T12:07:52.200Z,5.10
2022-11-01T12:10:34.904Z,3.73
2022-11-01T12:13:27.979Z,4.73
2022-11-01T12:16:19.212Z,4.67
2022-11-01T12:18:56.778Z,7.00
2022-11-01T12:21:29.982Z,5.73
2022-11-01T12:24:07.170Z,2.73
2022-11-01T12:26:38.383Z,3.00
2022-11-01T12:29:27.934Z,5.43
2022-11-01T12:32:03.671Z,4.73
2022-11-01T12:34:41.369Z,5.93
2022-11-01T12:37:20.209Z,2.50
2022-11-01T12:39:57.654Z,4.70
2022-11-01T12:42:30.892Z,3.23
2022-11-01T12:45:13.308Z,3.23
2022-11-01T12:47:49.172Z,3.90
2022-11-01T12:50:24.247Z,3.47
2022-11-01T12:53:02.015Z,4.90
2022-11-01T12:55:36.531Z,2.90
2022-11-01T12:58:13.242Z,2.50
2022-11-01T13:01:14.455Z,3.40
2022-11-01T13:03:54.318Z,4.23
2022-11-01T13:06:57.357Z,5.13
2022-11-01T13:09:36.010Z,3.10
2022-11-01T13:12:14.580Z,5.50
2022-11-01T13:15:01.747Z,2.87
2022-11-01T13:17:43.436Z,3.10
2022-11-01T13:20:33.471Z,4.30
2022-11-01T13:23:17.277Z,6.40
2022-11-01T13:25:57.539Z,3.77
2022-11-01T13:29:02.237Z,2.90
2022-11-01T13:31:44.566Z,3.53
2022-11-01T13:34:35.619Z,3.37
2022-11-01T13:37:18.083Z,3.63
2022-11-01T13:40:09.735Z,5.53
2022-11-01T13:42:44.860Z,3.70
2022-11-01T13:46:02.960Z,2.97
2022-11-01T13:48:54.301Z,6.87
2022-11-01T13:51:40.149Z,4.33
2022-11-01T13:54:24.223Z,2.63
2022-11-01T13:56:59.858Z,4.07
2022-11-01T13:59:44.429Z,4.90
2022-11-01T14:02:54.414Z,2.90
2022-11-01T14:05:23.431Z,2.10
2022-11-01T14:08:28.757Z,4.50
2022-11-01T14:10:57.623Z,3.00
2022-11-01T14:13:39.051Z,4.47
2022-11-01T14:16:25.879Z,5.67
2022-11-01T14:19:23.351Z,5.27
2022-11-01T14:21:54.383Z,2.30
2022-11-01T14:24:35.326Z,2.77
2022-11-01T14:27:20.830Z,3.50
2022-11-01T14:29:58.514Z,4.27
2022-11-01T14:32:31.330Z,3.47
2022-11-01T14:35:07.764Z,3.83
2022-11-01T14:37:43.736Z,1.93
2022-11-01T14:40:30.518Z,5.53
2022-11-01T14:43:12.751Z,4.27
2022-11-01T14:45:46.325Z,4.37
2022-11-01T14:48:23.296Z,3.83
2022-11-01T14:51:03.224Z,3.87
2022-11-01T14:53:35.519Z,3.83
2022-11-01T14:56:20.198Z,3.97
2022-11-01T14:58:49.738Z,4.33
2022-11-01T15:01:23.297Z,3.33
2022-11-01T15:03:57.276Z,4.23
2022-11-01T15:06:28.513Z,3.30
2022-11-01T15:08:59.124Z,3.53
2022-11-01T15:11:32.085Z,3.30
2022-11-01T15:14:07.351Z,3.90
2022-11-01T15:16:36.975Z,4.50
2022-11-01T15:19:13.185Z,4.97
2022-11-01T15:21:47.490Z,4.97
2022-11-01T15:24:22.200Z,3.23
2022-11-01T15:26:54.058Z,3.87
2022-11-01T15:29:25.758Z,4.80
2022-11-01T15:32:00.003Z,8.67
2022-11-01T15:34:31.838Z,9.47
2022-11-01T15:37:11.722Z,7.67
2022-11-01T15:39:40.469Z,11.77
2022-11-01T15:42:18.208Z,5.93
2022-11-01T15:44:46.667Z,5.37
2022-11-01T15:47:21.161Z,9.57
2022-11-01T15:49:57.636Z,7.50
2022-11-01T15:52:31.590Z,8.07
2022-11-01T15:55:07.070Z,6.97
2022-11-01T15:57:43.863Z,4.53
2022-11-01T16:00:20.213Z,4.73
2022-11-01T16:02:59.986Z,5.93
2022-11-01T16:05:35.652Z,4.53
2022-11-01T16:08:09.344Z,6.40
2022-11-01T16:10:38.017Z,7.13
2022-11-01T16:13:16.869Z,3.53
2022-11-01T16:16:02.174Z,3.30
2022-11-01T16:18:35.939Z,4.03
2022-11-01T16:21:07.335Z,4.00
2022-11-01T16:23:36.296Z,5.47
2022-11-01T16:26:08.408Z,5.50
2022-11-01T16:28:44.830Z,3.93
2022-11-01T16:31:22.566Z,4.80
2022-11-01T16:33:51.354Z,4.57
2022-11-01T16:36:41.408Z,3.60
2022-11-01T16:39:31.638Z,6.53
2022-11-01T16:42:00.939Z,5.27
2022-11-01T16:44:31.337Z,3.90
2022-11-01T16:47:00.323Z,4.53
2022-11-01T16:49:29.965Z,5.40
2022-11-01T16:51:59.042Z,8.40
2022-11-01T16:54:28.366Z,7.30
2022-11-01T16:56:59.032Z,5.23
2022-11-01T16:59:37.894Z,4.77
2022-11-01T17:02:18.483Z,6.23
2022-11-01T17:04:50.955Z,5.80
2022-11-01T17:07:20.086Z,4.23
2022-11-01T17:09:49.133Z,4.23
2022-11-01T17:12:17.605Z,5.47
2022-11-01T17:14:47.997Z,6.37
2022-11-01T17:17:24.472Z,5.70
2022-11-01T17:20:02.016Z,4.53
2022-11-01T17:22:36.263Z,4.63
2022-11-01T17:25:06.964Z,3.33
2022-11-01T17:27:35.781Z,3.37
2022-11-01T17:30:06.428Z,6.13
2022-11-01T17:32:34.911Z,6.87
2022-11-01T17:35:04.492Z,4.23
2022-11-01T17:37:35.531Z,4.73
2022-11-01T17:40:15.703Z,6.03
2022-11-01T17:42:44.100Z,3.07
2022-11-01T17:45:14.384Z,3.77
2022-11-01T17:47:43.022Z,2.80
2022-11-01T17:50:15.184Z,5.97
2022-11-01T17:52:44.679Z,5.07
2022-11-01T17:55:13.739Z,5.20
2022-11-01T17:57:43.501Z,4.57
2022-11-01T18:00:14.575Z,4.80
2022-11-01T18:02:44.200Z,6.27
2022-11-01T18:05:13.791Z,7.77
2022-11-01T18:07:45.388Z,6.80
2022-11-01T18:10:19.835Z,5.90
2022-11-01T18:13:14.216Z,6.97
2022-11-01T18:15:54.842Z,5.80
2022-11-01T18:18:47.615Z,6.60
2022-11-01T18:21:26.823Z,5.93
2022-11-01T18:23:59.225Z,3.30
2022-11-01T18:26:29.810Z,4.47
2022-11-01T18:29:11.300Z,3.77
2022-11-01T18:31:47.341Z,3.03
2022-11-01T18:34:31.903Z,5.10
2022-11-01T18:37:17.605Z,6.33
2022-11-01T18:40:00.147Z,4.77
2022-11-01T18:42:29.427Z,3.87
2022-11-01T18:45:01.165Z,4.47
2022-11-01T18:47:39.839Z,6.27
2022-11-01T18:50:23.465Z,4.07
2022-11-01T18:53:02.854Z,4.40
2022-11-01T18:55:33.501Z,7.93
2022-11-01T18:58:16.592Z,5.03
2022-11-01T19:00:45.776Z,5.83
2022-11-01T19:03:21.768Z,5.73
2022-11-01T19:05:52.782Z,8.03
2022-11-01T19:08:26.594Z,6.37
2022-11-01T19:10:56.532Z,6.43
2022-11-01T19:13:33.960Z,7.00
2022-11-01T19:16:04.253Z,4.57
2022-11-01T19:18:38.182Z,4.97
2022-11-01T19:21:17.011Z,7.13
2022-11-01T19:23:50.500Z,6.30
2022-11-01T19:26:26.735Z,3.90
2022-11-01T19:28:56.193Z,7.53
2022-11-01T19:31:28.169Z,2.90
2022-11-01T19:34:01.274Z,1.53
2022-11-01T19:39:24.042Z,2.20
2022-11-01T19:41:54.985Z,1.37
2022-11-01T19:44:26.442Z,2.10
2022-11-01T19:47:06.640Z,1.73
2022-11-01T19:49:41.886Z,2.10
2022-11-01T19:52:27.129Z,3.40
2022-11-01T19:54:56.220Z,2.60
2022-11-01T19:57:33.128Z,2.43
2022-11-01T20:00:19.920Z,2.97
2022-11-01T20:02:51.063Z,2.17
2022-11-01T20:05:28.519Z,3.33
2022-11-01T20:08:18.311Z,2.33
2022-11-01T20:10:46.855Z,1.50
2022-11-01T20:13:15.278Z,1.40
2022-11-01T20:15:44.233Z,3.27
2022-11-01T20:18:12.662Z,2.83
2022-11-01T20:20:43.803Z,3.50
2022-11-01T20:23:25.971Z,2.20
2022-11-01T20:25:55.470Z,5.73
2022-11-01T20:28:24.133Z,2.83
2022-11-01T20:30:52.538Z,2.80
2022-11-01T20:33:20.972Z,1.67
2022-11-01T20:35:51.331Z,1.37
2022-11-01T20:40:53.430Z,3.43
2022-11-01T20:43:21.853Z,1.43
2022-11-01T20:45:50.535Z,2.83
2022-11-01T20:48:20.771Z,2.87
2022-11-01T20:50:51.080Z,2.33
2022-11-01T20:53:19.849Z,2.70
2022-11-01T20:55:48.835Z,2.60
2022-11-01T20:58:17.844Z,4.13
2022-11-01T21:00:46.920Z,2.63
2022-11-01T21:03:18.688Z,5.47
2022-11-01T21:05:50.964Z,2.87
2022-11-01T21:08:23.843Z,4.27
2022-11-01T21:10:57.403Z,4.63
2022-11-01T21:13:29.822Z,2.70
2022-11-01T21:16:01.486Z,1.73
2022-11-01T21:18:37.732Z,4.83
2022-11-01T21:21:32.162Z,1.87
2022-11-01T21:24:18.259Z,2.60
2022-11-01T21:26:50.901Z,1.30
2022-11-01T21:29:30.830Z,3.57
2022-11-01T21:31:59.344Z,1.83
2022-11-01T21:34:31.709Z,1.80
2022-11-01T21:37:02.216Z,2.90
2022-11-01T21:39:32.875Z,3.50
2022-11-01T21:42:07.580Z,1.90
2022-11-01T21:44:41.576Z,2.53
2022-11-01T21:47:20.535Z,3.93
2022-11-01T21:49:50.851Z,4.80
2022-11-01T21:52:21.327Z,3.20
2022-11-01T21:54:50.867Z,5.27
2022-11-01T21:57:19.879Z,2.63
2022-11-01T21:59:48.892Z,3.30
2022-11-01T22:02:17.503Z,2.40
2022-11-01T22:04:46.441Z,2.50
2022-11-01T22:07:15.449Z,2.50
2022-11-01T22:09:45.180Z,2.87
2022-11-01T22:12:13.583Z,5.03
2022-11-01T22:14:42.035Z,4.63
2022-11-01T22:17:10.506Z,6.27
2022-11-01T22:19:39.428Z,3.53
2022-11-01T22:22:07.825Z,3.83
2022-11-01T22:24:36.319Z,3.70
2022-11-01T22:27:06.104Z,3.73
2022-11-01T22:29:35.234Z,2.37
2022-11-01T22:32:04.481Z,3.73
2022-11-01T22:34:32.946Z,3.93
2022-11-01T22:37:01.737Z,4.33
2022-11-01T22:39:31.221Z,3.43
2022-11-01T22:42:02.078Z,5.07
2022-11-01T22:44:34.468Z,3.90
2022-11-01T22:47:05.991Z,3.20
2022-11-01T22:49:38.219Z,3.03
2022-11-01T22:52:20.330Z,6.40
2022-11-01T22:54:51.449Z,4.30
2022-11-01T22:57:23.569Z,4.30
2022-11-01T22:59:58.464Z,3.63
2022-11-01T23:02:30.882Z,2.80
2022-11-01T23:05:22.399Z,6.50
2022-11-01T23:07:53.852Z,3.07
2022-11-01T23:10:30.079Z,3.87
2022-11-01T23:13:35.111Z,2.23
2022-11-01T23:16:22.919Z,5.90
2022-11-01T23:18:53.232Z,6.43
2022-11-01T23:21:23.197Z,3.67
2022-11-01T23:23:52.279Z,3.33
2022-11-01T23:26:23.656Z,4.00
2022-11-01T23:28:56.287Z,5.47
2022-11-01T23:31:29.415Z,6.87
2022-11-01T23:33:57.855Z,6.70
2022-11-01T23:36:30.292Z,2.23
2022-11-01T23:39:02.930Z,4.63
2022-11-01T23:41:36.949Z,4.60
2022-11-01T23:44:19.304Z,4.67
2022-11-01T23:46:49.696Z,2.20
2022-11-01T23:49:24.661Z,4.43
2022-11-01T23:51:53.719Z,4.53
2022-11-01T23:54:31.046Z,5.43
2022-11-01T23:56:59.690Z,2.93
2022-11-01T23:59:28.669Z,5.83
